Time;durP1;ratioP1;P1;durP2;ratioP2;P2;SDS_P1;SDS_P2;PMS_P1;PMS_P2;Temp;Humidity;BMP_temperature;BMP_pressure;BME280_temperature;BME280_humidity;BME280_pressure;Samples;Min_cycle;Max_cycle;Signal;HPM_P1;HPM_P2
2021/12/25 04:49:27;;;;;;;44.30;40.97;;;;;;;-5.39;67.26;101199.97;6133821;23;20014;-84
2021/12/25 05:02:57;;;;;;;45.95;42.20;;;;;;;-5.14;67.66;101268.00;6121060;23;20037;-84
2021/12/25 05:05:23;;;;;;;45.05;41.78;;;;;;;-5.24;67.81;101257.50;6108346;23;20017;-85
2021/12/25 05:07:48;;;;;;;45.05;41.85;;;;;;;-5.12;67.99;101270.59;6104118;23;19994;-83
2021/12/25 05:10:14;;;;;;;44.57;41.13;;;;;;;-5.11;67.73;101272.28;6103913;23;20028;-85
2021/12/25 05:12:39;;;;;;;45.17;41.43;;;;;;;-5.22;68.42;101263.44;6127460;23;20029;-84
2021/12/25 05:15:06;;;;;;;45.92;42.00;;;;;;;-5.14;68.28;101277.16;6103669;23;20045;-85
2021/12/25 05:17:31;;;;;;;;;;;;;;;-5.17;68.25;101270.38;6101980;23;20006;-85
2021/12/25 05:20:00;;;;;;;43.70;40.55;;;;;;;-5.21;68.81;101265.16;6083035;23;19971;-85
2021/12/25 05:22:26;;;;;;;44.38;41.15;;;;;;;-5.24;69.13;101265.03;6083664;23;20061;-84
2021/12/25 05:24:51;;;;;;;45.75;42.10;;;;;;;-5.28;69.21;101264.88;6084829;23;20009;-85
2021/12/25 05:27:17;;;;;;;46.38;42.42;;;;;;;-5.23;69.49;101269.22;6111414;23;20002;-85
2021/12/25 05:29:46;;;;;;;44.28;40.97;;;;;;;-5.41;69.36;101240.03;6085636;23;20024;-85
2021/12/25 05:32:13;;;;;;;44.92;41.63;;;;;;;-5.22;68.81;101278.47;6085391;23;20005;-85
2021/12/25 05:34:38;;;;;;;;;;;;;;;-5.33;69.89;101281.38;6109464;23;20002;-85
2021/12/25 05:37:04;;;;;;;44.72;41.35;;;;;;;-5.42;69.67;101250.88;6090218;23;19912;-85
2021/12/25 05:39:29;;;;;;;33.88;31.13;;;;;;;-5.24;69.40;101280.06;6091940;23;20013;-85
2021/12/25 05:41:55;;;;;;;44.80;41.50;;;;;;;-5.31;70.32;101287.31;6090974;23;20276;-84
2021/12/25 05:44:20;;;;;;;45.13;41.43;;;;;;;-5.32;70.83;101273.03;6092542;23;20398;-83
2021/12/25 05:46:45;;;;;;;46.37;42.57;;;;;;;-5.28;70.58;101274.06;6114610;23;20457;-84
2021/12/25 05:49:11;;;;;;;44.87;41.43;;;;;;;-5.36;70.73;101270.34;6089472;23;20477;-85
2021/12/25 05:51:36;;;;;;;44.03;40.90;;;;;;;-5.41;70.37;101272.63;6115504;23;20009;-84
2021/12/25 05:54:01;;;;;;;44.50;41.03;;;;;;;-5.56;70.11;101259.44;6090883;23;20006;-84
2021/12/25 05:56:26;;;;;;;44.33;41.00;;;;;;;-5.51;70.20;101270.50;6089228;23;20057;-83
2021/12/25 05:58:52;;;;;;;44.43;41.17;;;;;;;-5.45;70.52;101278.31;6090778;23;20030;-84
2021/12/25 06:01:17;;;;;;;44.13;40.43;;;;;;;-5.67;70.81;101254.75;6112634;23;20381;-85
2021/12/25 06:03:42;;;;;;;44.40;41.20;;;;;;;-5.47;70.96;101290.78;6084701;23;19994;-84
2021/12/25 06:06:08;;;;;;;44.47;41.20;;;;;;;-5.58;71.31;101273.50;6084371;23;20005;-85
2021/12/25 06:08:33;;;;;;;44.33;41.10;;;;;;;-5.75;70.51;101241.03;6083309;23;20013;-84
2021/12/25 06:11:00;;;;;;;45.17;41.53;;;;;;;-5.48;70.79;101284.03;6083615;23;20002;-85
2021/12/25 06:13:26;;;;;;;43.45;40.40;;;;;;;-5.66;70.91;101260.66;6082357;23;20002;-84
2021/12/25 06:15:54;;;;;;;45.10;41.60;;;;;;;-5.74;70.93;101272.84;6081201;23;20016;-83
2021/12/25 06:18:19;;;;;;;45.05;41.30;;;;;;;-5.64;71.32;101276.63;6088360;23;20017;-83
2021/12/25 06:20:45;;;;;;;33.13;30.47;;;;;;;-5.48;71.70;101290.72;6098488;23;20526;-84
2021/12/25 06:23:16;;;;;;;44.00;41.00;;;;;;;-5.47;71.14;101297.44;6102600;23;20005;-83
2021/12/25 06:25:41;;;;;;;44.08;40.95;;;;;;;-5.48;71.29;101295.72;6105507;23;20005;-83
2021/12/25 06:28:06;;;;;;;44.03;40.87;;;;;;;-5.52;71.08;101296.34;6105120;23;19998;-82
2021/12/25 06:30:32;;;;;;;45.43;41.63;;;;;;;-5.47;71.31;101300.81;6099555;23;20114;-82
2021/12/25 06:32:57;;;;;;;45.22;41.47;;;;;;;-5.54;71.03;101293.78;6083224;23;20025;-84
2021/12/25 06:35:23;;;;;;;43.33;40.33;;;;;;;-5.57;71.23;101296.16;6083102;23;20036;-84
2021/12/25 06:37:49;;;;;;;44.87;40.53;;;;;;;-5.55;71.53;101303.75;6106294;23;20002;-84
2021/12/25 06:40:18;;;;;;;44.00;40.88;;;;;;;-5.59;71.16;101304.41;6082256;23;20310;-84
2021/12/25 06:42:44;;;;;;;45.20;41.20;;;;;;;-5.57;71.29;101307.81;6092274;23;20409;-84
2021/12/25 06:45:09;;;;;;;34.92;32.22;;;;;;;-5.62;71.94;101311.78;6084826;23;20005;-84
2021/12/25 06:47:35;;;;;;;44.70;41.22;;;;;;;-5.65;72.13;101312.47;6084292;23;20500;-85
2021/12/25 06:50:02;;;;;;;45.88;41.90;;;;;;;-5.68;72.59;101303.19;6110304;23;19997;-85
2021/12/25 06:52:27;;;;;;;;;;;;;;;-5.65;72.80;101312.47;6085997;23;20037;-84
2021/12/25 06:54:52;;;;;;;44.50;40.75;;;;;;;-5.67;72.99;101299.88;6085278;23;20271;-84
2021/12/25 06:57:18;;;;;;;42.90;40.00;;;;;;;-5.61;72.43;101308.50;6096165;23;19990;-83
2021/12/25 06:59:44;;;;;;;42.97;40.07;;;;;;;-5.70;72.28;101304.75;6129088;23;19994;-83
2021/12/25 07:02:09;;;;;;;43.80;40.47;;;;;;;-5.87;72.85;101285.56;6104367;23;20240;-83
2021/12/25 07:04:34;;;;;;;44.17;40.77;;;;;;;-5.84;72.66;101288.22;6103749;23;19998;-83
2021/12/25 07:07:00;;;;;;;46.43;42.27;;;;;;;-5.79;72.94;101294.31;6104065;23;20005;-83
2021/12/25 07:09:25;;;;;;;45.27;41.73;;;;;;;-5.68;72.60;101323.25;6125146;23;20001;-83
2021/12/25 07:11:53;;;;;;;43.77;40.63;;;;;;;-5.74;73.00;101317.94;6096387;23;20114;-83
2021/12/25 07:14:18;;;;;;;44.33;41.10;;;;;;;-5.81;72.83;101305.91;6082723;23;20029;-83
2021/12/25 07:16:44;;;;;;;33.73;31.07;;;;;;;-5.83;72.55;101305.81;6082998;23;20437;-83
2021/12/25 07:19:12;;;;;;;43.83;40.53;;;;;;;-5.73;73.05;101323.81;6083279;23;19998;-81
2021/12/25 07:21:38;;;;;;;44.08;40.97;;;;;;;-5.68;73.10;101323.25;6085975;23;20002;-83
2021/12/25 07:24:04;;;;;;;44.97;41.42;;;;;;;-5.71;73.27;101322.22;6083728;23;20009;-83
2021/12/25 07:26:29;;;;;;;43.35;40.30;;;;;;;-5.75;73.12;101332.91;6084634;23;20005;-83
2021/12/25 07:28:55;;;;;;;44.22;40.92;;;;;;;-5.81;73.19;101323.44;6085796;23;20417;-83
2021/12/25 07:31:21;;;;;;;44.00;40.80;;;;;;;-5.75;72.99;101346.28;6088878;23;20012;-83
2021/12/25 07:33:46;;;;;;;43.78;40.88;;;;;;;-5.85;73.30;101324.94;6084859;23;20028;-84
2021/12/25 07:36:12;;;;;;;43.00;40.10;;;;;;;-5.89;73.23;101322.22;6109027;23;20085;-84
2021/12/25 07:38:38;;;;;;;43.33;40.33;;;;;;;-5.75;72.97;101333.75;6085251;23;20100;-83
2021/12/25 07:41:03;;;;;;;43.83;40.77;;;;;;;-5.89;73.14;101327.22;6106688;23;20002;-81
2021/12/25 07:43:28;;;;;;;44.93;41.40;;;;;;;-5.72;73.07;101348.94;6081104;23;20002;-81
2021/12/25 07:45:54;;;;;;;45.67;42.30;;;;;;;-5.76;73.27;101339.53;6080407;23;20006;-82
2021/12/25 07:48:20;;;;;;;47.10;43.17;;;;;;;-5.65;72.36;101348.44;6084689;23;20028;-84
2021/12/25 07:50:46;;;;;;;;;;;;;;;-5.74;72.68;101352.16;6092111;23;20331;-84
2021/12/25 07:53:12;;;;;;;45.25;41.85;;;;;;;-5.75;72.77;101346.28;6089023;23;19916;-84
2021/12/25 07:55:37;;;;;;;33.57;31.20;;;;;;;-5.74;72.48;101358.03;6088751;23;20006;-84
2021/12/25 07:58:02;;;;;;;45.30;41.70;;;;;;;-5.67;72.78;101356.69;6091302;23;20020;-84
2021/12/25 08:00:28;;;;;;;45.40;41.73;;;;;;;-5.68;72.50;101347.44;6115191;23;20081;-84
2021/12/25 08:02:53;;;;;;;46.27;42.23;;;;;;;-5.79;72.67;101331.91;6114047;23;20017;-84
2021/12/25 08:05:20;;;;;;;45.22;41.63;;;;;;;-5.63;72.67;101358.56;6117144;23;20017;-84
2021/12/25 08:07:45;;;;;;;;;;;;;;;-5.43;72.34;101366.13;6099849;23;20037;-84
2021/12/25 08:10:14;;;;;;;44.55;41.30;;;;;;;-5.18;71.44;101355.59;6099636;23;19904;-82
2021/12/25 08:12:44;;;;;;;46.92;42.97;;;;;;;-4.56;68.70;101362.53;6093066;23;20001;-83
2021/12/25 08:15:11;;;;;;;47.05;43.55;;;;;;;-3.85;66.74;101378.03;6090822;23;20006;-84
2021/12/25 08:17:36;;;;;;;46.15;42.55;;;;;;;-3.52;64.21;101376.78;6090997;23;20002;-84
2021/12/25 08:20:04;;;;;;;46.53;43.13;;;;;;;-3.60;63.82;101379.00;6089764;23;20192;-84
2021/12/25 08:22:29;;;;;;;46.38;42.95;;;;;;;-4.03;64.19;101373.09;6088175;23;20092;-83
2021/12/25 08:24:54;;;;;;;47.00;43.20;;;;;;;-4.25;65.05;101371.38;6089214;23;20057;-82
2021/12/25 08:27:20;;;;;;;48.13;43.93;;;;;;;-4.52;66.17;101385.25;6089283;23;20059;-83
2021/12/25 08:29:45;;;;;;;47.10;43.37;;;;;;;-4.56;66.27;101377.59;6089841;23;20009;-82
2021/12/25 08:32:11;;;;;;;46.27;42.67;;;;;;;-4.56;66.87;101369.19;6090280;23;20006;-82
2021/12/25 08:34:37;;;;;;;46.57;42.87;;;;;;;-4.08;65.57;101369.53;6088877;23;20378;-82
2021/12/25 08:37:04;;;;;;;46.30;42.90;;;;;;;-3.83;64.49;101355.47;6087969;23;20016;-83
2021/12/25 08:39:29;;;;;;;47.25;43.13;;;;;;;-3.65;63.46;101356.19;6088556;23;20033;-81
2021/12/25 08:42:03;;;;;;;47.03;43.33;;;;;;;-3.43;62.34;101372.13;6088479;23;20002;-82
2021/12/25 08:44:35;;;;;;;47.30;43.53;;;;;;;-3.36;62.49;101378.25;6090213;23;20001;-81
2021/12/25 08:47:04;;;;;;;46.35;42.80;;;;;;;-3.62;62.55;101362.16;6091186;23;20001;-82
2021/12/25 08:49:30;;;;;;;46.75;43.15;;;;;;;-4.07;64.66;101360.34;6090437;23;20021;-83
2021/12/25 08:51:57;;;;;;;47.13;43.47;;;;;;;-3.91;64.53;101346.78;6092957;23;20002;-82
2021/12/25 08:54:23;;;;;;;47.00;43.40;;;;;;;-3.72;64.00;101365.94;6091188;23;20021;-83
2021/12/25 08:56:48;;;;;;;47.23;43.43;;;;;;;-3.95;64.18;101368.38;6093385;23;20001;-82
2021/12/25 08:59:13;;;;;;;46.90;43.30;;;;;;;-4.10;64.34;101358.56;6095111;23;20002;-82
2021/12/25 09:01:39;;;;;;;46.77;43.10;;;;;;;-4.03;64.94;101383.16;6124011;23;20002;-81
2021/12/25 09:04:05;;;;;;;46.23;42.70;;;;;;;-4.10;65.00;101385.38;6101855;23;20006;-82
2021/12/25 09:06:30;;;;;;;45.53;42.20;;;;;;;-4.30;65.79;101387.03;6095749;23;20061;-82
2021/12/25 09:08:56;;;;;;;47.10;43.40;;;;;;;-4.54;66.29;101371.78;6093029;23;20006;-83
2021/12/25 09:11:21;;;;;;;47.07;43.27;;;;;;;-4.51;66.88;101402.06;6087447;23;19998;-81
2021/12/25 09:13:48;;;;;;;48.17;44.23;;;;;;;-4.49;66.55;101385.38;6098194;23;20244;-82
2021/12/25 09:16:14;;;;;;;46.80;43.13;;;;;;;-4.43;67.23;101396.56;6104663;23;20220;-81
2021/12/25 09:18:40;;;;;;;46.80;43.17;;;;;;;-4.46;66.99;101390.53;6101515;23;20065;-83
2021/12/25 09:21:06;;;;;;;47.25;43.30;;;;;;;-4.44;67.59;101368.84;6092059;23;20357;-83
2021/12/25 09:23:32;;;;;;;45.30;41.97;;;;;;;-4.67;69.20;101391.31;6091469;23;20007;-84
2021/12/25 09:25:57;;;;;;;46.07;42.50;;;;;;;-4.86;68.79;101371.22;6093444;23;20013;-83
2021/12/25 09:28:23;;;;;;;44.80;41.50;;;;;;;-5.05;71.01;101408.03;6093738;23;20381;-84
2021/12/25 09:30:48;;;;;;;44.83;41.50;;;;;;;-5.11;71.69;101413.66;6093094;23;20034;-82
2021/12/25 09:33:13;;;;;;;47.17;42.73;;;;;;;-5.04;71.32;101369.63;6093095;23;20056;-83
2021/12/25 09:35:39;;;;;;;46.10;42.40;;;;;;;-4.46;70.70;101414.00;6093003;23;20057;-83
2021/12/25 09:38:04;;;;;;;44.97;41.63;;;;;;;-4.56;68.73;101395.16;6093683;23;20001;-82
2021/12/25 09:40:29;;;;;;;44.87;41.50;;;;;;;-4.77;69.49;101404.28;6093097;23;20002;-82
2021/12/25 09:42:55;;;;;;;45.00;41.47;;;;;;;-4.74;70.06;101410.28;6098471;23;20069;-81
2021/12/25 09:45:21;;;;;;;45.90;42.30;;;;;;;-4.90;70.11;101394.47;6105978;23;20013;-80
2021/12/25 09:47:47;;;;;;;46.50;42.90;;;;;;;-4.47;70.50;101423.97;6105339;23;20012;-81
2021/12/25 09:50:12;;;;;;;47.20;43.23;;;;;;;-4.47;69.88;101403.88;6105474;23;19994;-80
2021/12/25 09:52:38;;;;;;;46.93;42.50;;;;;;;-4.38;69.73;101424.38;6129372;23;20042;-81
2021/12/25 09:55:04;;;;;;;;;;;;;;;-4.11;69.34;101421.34;6103932;23;20102;-81
2021/12/25 09:57:29;;;;;;;45.45;42.00;;;;;;;-4.08;68.61;101408.91;6103351;23;19901;-83
2021/12/25 09:59:55;;;;;;;47.23;42.87;;;;;;;-4.20;68.25;101415.13;6105176;23;20021;-81
2021/12/25 10:02:20;;;;;;;46.13;42.23;;;;;;;-4.14;67.50;101406.13;6129315;23;20057;-81
2021/12/25 10:04:52;;;;;;;47.57;43.53;;;;;;;-4.39;68.42;101417.63;6105059;23;20029;-80
2021/12/25 10:07:29;;;;;;;45.47;42.22;;;;;;;-4.28;69.04;101424.00;6104478;23;20013;-80
2021/12/25 10:10:05;;;;;;;47.58;43.63;;;;;;;-4.06;68.05;101418.19;6105132;23;19993;-81
2021/12/25 10:12:44;;;;;;;45.53;42.22;;;;;;;-3.99;67.80;101424.38;6105193;23;19994;-79
2021/12/25 10:15:18;;;;;;;46.53;42.72;;;;;;;-4.11;68.31;101419.66;6096306;23;20074;-82
2021/12/25 10:17:49;;;;;;;48.65;43.10;;;;;;;-3.99;68.51;101426.00;6093943;23;20010;-82
2021/12/25 10:20:17;;;;;;;47.15;43.45;;;;;;;-3.79;68.68;101409.25;6103892;23;19994;-81
2021/12/25 10:22:56;;;;;;;55.85;47.58;;;;;;;-3.69;68.11;101416.34;6153566;23;20001;-81
2021/12/25 10:25:22;;;;;;;47.95;44.00;;;;;;;-3.77;68.06;101410.16;6126345;23;20058;-81
2021/12/25 10:27:55;;;;;;;47.38;43.63;;;;;;;-3.80;69.37;101415.06;6103853;23;20002;-81
2021/12/25 10:30:21;;;;;;;47.08;43.05;;;;;;;-3.83;70.08;101411.63;6104314;23;19994;-82
2021/12/25 10:32:48;;;;;;;48.47;44.37;;;;;;;-3.95;70.56;101400.22;6103219;23;20062;-81
2021/12/25 10:35:25;;;;;;;;;;;;;;;-3.84;70.90;101426.66;6103210;23;20009;-81
2021/12/25 10:37:53;;;;;;;46.15;42.78;;;;;;;-3.90;70.82;101409.66;6101871;23;19908;-83
2021/12/25 10:40:32;;;;;;;47.70;43.65;;;;;;;-3.74;71.36;101412.78;6101730;23;20025;-83
2021/12/25 10:43:00;;;;;;;47.20;43.25;;;;;;;-3.69;71.71;101403.78;6103550;23;20029;-83
2021/12/25 10:45:28;;;;;;;46.38;42.97;;;;;;;-3.75;71.76;101398.53;6104005;23;20006;-83
2021/12/25 10:48:07;;;;;;;47.03;43.33;;;;;;;-3.55;71.65;101411.88;6104097;23;20013;-84
2021/12/25 10:50:41;;;;;;;46.35;42.83;;;;;;;-3.56;71.97;101411.03;6105000;23;20002;-82
2021/12/25 10:53:41;;;;;;;47.20;43.10;;;;;;;-3.56;71.58;101413.53;6104529;23;19994;-82
2021/12/25 10:56:14;;;;;;;47.38;43.50;;;;;;;-3.60;72.43;101399.13;6088746;23;20069;-83
2021/12/25 10:58:41;;;;;;;46.42;42.97;;;;;;;-3.38;71.97;101410.03;6101652;23;20006;-83
2021/12/25 11:01:09;;;;;;;47.42;43.70;;;;;;;-3.36;71.47;101405.91;6100161;23;20010;-83
2021/12/25 11:03:38;;;;;;;46.90;43.22;;;;;;;-3.39;70.90;101403.28;6092552;23;20008;-83
2021/12/25 11:06:17;;;;;;;47.80;44.00;;;;;;;-3.50;71.54;101381.09;6092708;23;20010;-84
2021/12/25 11:08:44;;;;;;;49.13;44.90;;;;;;;-3.43;70.23;101396.44;6114898;23;20009;-84
2021/12/25 11:11:16;;;;;;;47.25;43.72;;;;;;;-3.38;70.41;101393.28;6089095;23;20374;-83
2021/12/25 11:13:42;;;;;;;48.53;44.72;;;;;;;-3.26;69.57;101392.91;6089402;23;20044;-84
2021/12/25 11:16:11;;;;;;;;;;;;;;;-3.20;69.89;101395.63;6089857;23;20384;-83
2021/12/25 11:19:27;;;;;;;48.17;44.13;;;;;;;-3.23;69.96;101379.56;6114425;23;20326;-83
2021/12/25 11:21:43;;;;;;;49.65;45.50;;;;;;;-3.08;69.78;101400.28;6117973;23;20083;-83
2021/12/25 11:24:13;;;;;;;48.78;44.90;;;;;;;-3.08;67.82;101391.91;6116504;23;20005;-85
2021/12/25 11:26:40;;;;;;;47.28;43.70;;;;;;;-3.19;68.42;101356.25;6089486;23;20005;-84
2021/12/25 11:29:08;;;;;;;49.58;45.53;;;;;;;-3.06;68.80;101390.28;6116285;23;20025;-84
2021/12/25 11:31:33;;;;;;;49.63;45.53;;;;;;;-3.13;68.82;101386.69;6097365;23;19998;-82
2021/12/25 11:33:59;;;;;;;48.60;44.43;;;;;;;-3.07;69.15;101389.44;6125491;23;20049;-81
2021/12/25 11:36:24;;;;;;;47.97;44.17;;;;;;;-2.93;68.85;101392.44;6101041;23;20017;-81
2021/12/25 11:38:50;;;;;;;48.83;44.63;;;;;;;-3.02;69.28;101374.47;6100264;23;20005;-81
2021/12/25 11:41:16;;;;;;;50.08;46.08;;;;;;;-3.05;69.32;101380.28;6124734;23;20006;-82
2021/12/25 11:43:45;;;;;;;53.13;47.43;;;;;;;-2.90;69.33;101395.06;6097741;23;20042;-82
2021/12/25 11:46:13;;;;;;;49.47;44.72;;;;;;;-2.79;69.21;101398.00;6092946;23;20241;-83
2021/12/25 11:48:38;;;;;;;47.90;44.05;;;;;;;-2.78;69.29;101393.03;6092112;23;19993;-83
2021/12/25 11:51:06;;;;;;;50.28;46.20;;;;;;;-2.64;69.11;101392.66;6094340;23;20009;-84
2021/12/25 11:54:04;;;;;;;52.65;47.38;;;;;;;-2.68;68.61;101388.31;6115390;23;20002;-83
2021/12/25 11:56:43;;;;;;;52.03;47.20;;;;;;;-2.56;68.75;101382.06;6098744;23;20132;-82
2021/12/25 11:59:14;;;;;;;50.40;45.72;;;;;;;-2.49;68.47;101393.19;6093751;23;20009;-84
2021/12/25 12:01:45;;;;;;;48.90;44.80;;;;;;;-2.58;67.24;101397.91;6089271;23;20069;-83
2021/12/25 12:04:10;;;;;;;49.50;44.88;;;;;;;-2.47;67.72;101396.63;6088587;23;20030;-84
2021/12/25 12:06:56;;;;;;;52.50;47.37;;;;;;;-2.40;67.65;101398.56;6120193;23;20009;-84
2021/12/25 12:09:53;;;;;;;49.60;45.30;;;;;;;-2.51;66.82;101392.28;6102797;23;20014;-84
2021/12/25 12:12:21;;;;;;;48.45;44.40;;;;;;;-2.56;66.61;101379.53;6117404;23;20012;-84
2021/12/25 12:15:13;;;;;;;50.72;45.88;;;;;;;-2.32;66.63;101385.38;6091543;23;20037;-84
2021/12/25 12:17:39;;;;;;;52.25;47.10;;;;;;;-2.58;66.11;101372.72;6092728;23;20030;-82
2021/12/25 12:20:06;;;;;;;48.10;43.95;;;;;;;-2.53;65.59;101386.31;6098362;23;20009;-83
2021/12/25 12:22:46;;;;;;;50.38;45.55;;;;;;;-2.43;65.17;101392.56;6103647;23;20097;-84
2021/12/25 12:27:58;;;;;;;48.67;44.53;;;;;;;-2.28;63.62;101382.16;6128323;23;19998;-83
2021/12/25 12:30:39;;;;;;;48.95;44.63;;;;;;;-2.38;63.00;101359.16;6103226;23;20034;-83
2021/12/25 12:33:11;;;;;;;48.70;44.35;;;;;;;-2.37;62.75;101388.59;6123517;23;20010;-83
2021/12/25 12:35:39;;;;;;;48.55;44.30;;;;;;;-2.53;61.57;101376.25;6142605;23;20053;-82
2021/12/25 12:38:41;;;;;;;48.05;43.90;;;;;;;-2.61;61.57;101383.56;6092609;23;20434;-83
2021/12/25 12:41:15;;;;;;;47.50;43.25;;;;;;;-2.54;62.18;101389.66;6090526;23;20013;-84
2021/12/25 12:44:06;;;;;;;47.85;43.80;;;;;;;-2.39;62.89;101384.28;6091041;23;20061;-84
2021/12/25 12:46:58;;;;;;;48.85;43.53;;;;;;;-2.40;61.88;101391.00;6113958;23;19998;-84
2021/12/25 12:49:53;;;;;;;48.13;43.78;;;;;;;-2.29;61.66;101391.38;6115090;23;20054;-83
2021/12/25 12:52:37;;;;;;;47.55;43.63;;;;;;;-2.49;61.73;101385.66;6090298;23;20021;-83
2021/12/25 12:55:11;;;;;;;47.28;43.33;;;;;;;-2.47;60.88;101396.63;6090173;23;20002;-83
2021/12/25 12:57:43;;;;;;;46.78;43.17;;;;;;;-2.54;60.76;101397.22;6092815;23;20006;-82
2021/12/25 13:00:17;;;;;;;47.97;43.85;;;;;;;-2.53;60.95;101376.25;6089367;23;20002;-84
2021/12/25 13:02:55;;;;;;;48.33;44.10;;;;;;;-2.39;60.52;101392.72;6115065;23;20016;-83
2021/12/25 13:05:21;;;;;;;;;;;;;;;-2.41;60.78;101396.00;6091802;23;20010;-83
2021/12/25 13:07:49;;;;;;;47.15;43.58;;;;;;;-2.36;60.55;101399.53;6091385;23;19904;-82
2021/12/25 13:10:22;;;;;;;49.97;45.33;;;;;;;-2.52;61.22;101383.00;6115201;23;20085;-84
2021/12/25 13:12:50;;;;;;;51.22;46.05;;;;;;;-2.45;61.71;101397.56;6092842;23;19996;-84
2021/12/25 13:15:25;;;;;;;47.92;43.88;;;;;;;-2.38;60.91;101407.03;6093664;23;20000;-83
2021/12/25 13:17:57;;;;;;;48.45;44.40;;;;;;;-2.27;60.69;101393.97;6098755;23;20086;-84
2021/12/25 13:20:33;;;;;;;49.67;44.88;;;;;;;-2.04;60.36;101413.22;6103479;23;20005;-83
2021/12/25 13:23:00;;;;;;;49.45;45.17;;;;;;;-1.75;60.09;101400.75;6103541;23;20030;-84
2021/12/25 13:25:26;;;;;;;48.83;44.65;;;;;;;-2.03;60.55;101399.81;6127812;23;20050;-82
2021/12/25 13:27:56;;;;;;;50.43;45.83;;;;;;;-2.15;61.30;101409.47;6103577;23;19998;-84
2021/12/25 13:30:22;;;;;;;51.80;46.65;;;;;;;-2.29;61.05;101404.00;6103440;23;19998;-83
2021/12/25 13:32:47;;;;;;;51.20;46.38;;;;;;;-2.23;61.26;101391.59;6102763;23;20033;-83
2021/12/25 13:35:17;;;;;;;50.03;45.40;;;;;;;-2.21;61.95;101404.25;6099745;23;20025;-83
2021/12/25 13:37:43;;;;;;;50.65;45.58;;;;;;;-2.09;62.44;101409.69;6098822;23;20073;-83
2021/12/25 13:40:10;;;;;;;51.58;47.00;;;;;;;-2.10;62.04;101392.88;6099520;23;19994;-84
2021/12/25 13:42:35;;;;;;;50.42;45.75;;;;;;;-2.01;62.15;101404.91;6092542;23;20076;-83
2021/12/25 13:45:00;;;;;;;51.33;46.40;;;;;;;-2.03;62.17;101411.56;6091067;23;19998;-83
2021/12/25 13:47:28;;;;;;;49.47;45.40;;;;;;;-1.99;62.02;101407.50;6114444;23;20033;-83
2021/12/25 13:49:57;;;;;;;50.78;45.90;;;;;;;-2.03;62.29;101417.47;6116660;23;20005;-83
2021/12/25 13:52:34;;;;;;;49.50;45.10;;;;;;;-2.26;62.29;101414.19;6090093;23;20005;-84
2021/12/25 13:55:07;;;;;;;48.80;44.67;;;;;;;-2.39;62.41;101410.38;6089275;23;20009;-83
2021/12/25 13:57:33;;;;;;;49.20;45.20;;;;;;;-2.39;62.30;101401.94;6112736;23;20028;-83
2021/12/25 14:00:07;;;;;;;47.88;43.58;;;;;;;-2.47;61.55;101391.59;6088504;23;20010;-83
2021/12/25 14:02:32;;;;;;;49.38;44.38;;;;;;;-2.35;62.60;101397.84;6087176;23;20012;-83
2021/12/25 14:04:58;;;;;;;49.20;44.80;;;;;;;-2.35;62.85;101410.44;6087684;23;20054;-83
2021/12/25 14:07:26;;;;;;;49.77;45.20;;;;;;;-2.31;63.37;101418.19;6089125;23;20002;-84
2021/12/25 14:10:13;;;;;;;49.35;44.72;;;;;;;-2.40;63.75;101407.81;6088904;23;20240;-84
2021/12/25 14:12:43;;;;;;;49.80;45.35;;;;;;;-2.45;63.20;101405.13;6113945;23;20005;-85
2021/12/25 14:15:10;;;;;;;49.42;44.75;;;;;;;-2.42;63.33;101400.19;6093790;23;20021;-84
2021/12/25 14:17:37;;;;;;;47.70;43.92;;;;;;;-2.50;62.66;101408.25;6103983;23;20013;-84
2021/12/25 14:20:23;;;;;;;49.63;45.28;;;;;;;-2.39;63.75;101410.38;6094996;23;20288;-84
2021/12/25 14:22:50;;;;;;;50.28;45.30;;;;;;;-2.48;62.31;101409.16;6116255;23;20060;-84
2021/12/25 14:25:20;;;;;;;48.72;44.03;;;;;;;-2.44;63.33;101416.88;6092553;23;20005;-84
2021/12/25 14:27:58;;;;;;;50.30;45.38;;;;;;;-2.40;63.70;101418.72;6093092;23;20005;-84
2021/12/25 14:30:23;;;;;;;50.40;45.55;;;;;;;-2.43;63.35;101421.13;6094275;23;20006;-83
2021/12/25 14:32:49;;;;;;;48.47;44.37;;;;;;;-2.46;63.09;101418.50;6093700;23;20013;-83
2021/12/25 14:35:21;;;;;;;49.17;44.58;;;;;;;-2.47;63.60;101416.78;6091718;23;20037;-84
2021/12/25 14:37:47;;;;;;;49.55;45.22;;;;;;;-2.61;64.53;101411.28;6090581;23;20005;-83
2021/12/25 14:40:17;;;;;;;53.88;48.15;;;;;;;-2.63;65.27;101409.47;6092027;23;20343;-84
2021/12/25 14:42:46;;;;;;;54.67;48.80;;;;;;;-2.58;65.65;101411.38;6090542;23;20017;-83
2021/12/25 14:45:13;;;;;;;48.83;44.55;;;;;;;-2.64;65.72;101410.28;6090413;23;20330;-84
2021/12/25 14:48:12;;;;;;;48.38;44.47;;;;;;;-2.74;66.54;101402.41;6110863;23;20010;-84
2021/12/25 14:50:39;;;;;;;49.72;45.40;;;;;;;-2.79;67.32;101413.94;6109899;23;20016;-84
2021/12/25 14:53:09;;;;;;;48.88;44.70;;;;;;;-2.81;67.95;101409.69;6089213;23;20441;-84
2021/12/25 14:55:36;;;;;;;47.38;43.85;;;;;;;-2.79;68.37;101413.09;6085014;23;20074;-83
2021/12/25 14:58:07;;;;;;;48.72;44.25;;;;;;;-2.81;68.51;101422.28;6084173;23;20006;-83
2021/12/25 15:00:34;;;;;;;49.85;45.08;;;;;;;-2.88;69.26;101413.59;6091500;23;20017;-82
2021/12/25 15:03:09;;;;;;;;;;;;;;;-2.81;69.79;101422.28;6101603;23;20009;-83
2021/12/25 15:05:37;;;;;;;47.05;43.25;;;;;;;-2.92;69.65;101411.78;6093016;23;19913;-83
2021/12/25 15:08:19;;;;;;;50.50;46.13;;;;;;;-2.83;70.16;101419.69;6090396;23;20006;-84
2021/12/25 15:10:44;;;;;;;47.78;43.88;;;;;;;-2.95;70.28;101426.78;6099802;23;20006;-83
2021/12/25 15:13:20;;;;;;;47.70;43.87;;;;;;;-2.73;70.56;101430.97;6102892;23;20014;-83
2021/12/25 15:15:49;;;;;;;48.63;44.42;;;;;;;-2.78;70.34;101425.75;6104523;23;20081;-83
2021/12/25 15:18:29;;;;;;;48.42;44.33;;;;;;;-2.83;70.95;101427.25;6093725;23;20014;-83
2021/12/25 15:21:20;;;;;;;47.45;43.55;;;;;;;-2.95;71.53;101412.53;6092887;23;20033;-84
2021/12/25 15:23:48;;;;;;;49.00;44.72;;;;;;;-2.94;71.59;101424.31;6113150;23;20053;-83
2021/12/25 15:26:20;;;;;;;47.70;43.83;;;;;;;-2.83;71.44;101426.38;6088327;23;20069;-84
2021/12/25 15:28:57;;;;;;;49.13;44.50;;;;;;;-2.87;71.48;101427.91;6089385;23;20101;-84
2021/12/25 15:31:25;;;;;;;47.75;43.92;;;;;;;-2.86;72.11;101427.13;6086888;23;20543;-84
2021/12/25 15:33:55;;;;;;;47.85;44.05;;;;;;;-2.76;71.90;101425.81;6088035;23;20034;-84
2021/12/25 15:36:22;;;;;;;48.38;44.55;;;;;;;-2.78;71.84;101415.69;6088355;23;20021;-84
2021/12/25 15:38:48;;;;;;;48.90;44.55;;;;;;;-2.80;71.98;101422.34;6091847;23;20017;-84
2021/12/25 15:41:14;;;;;;;50.28;45.70;;;;;;;-2.75;72.04;101420.84;6095717;23;20010;-83
2021/12/25 15:43:40;;;;;;;48.90;44.45;;;;;;;-2.73;72.27;101423.41;6098051;23;20032;-84
2021/12/25 15:46:06;;;;;;;48.67;44.55;;;;;;;-2.68;71.94;101413.50;6098135;23;20006;-84
2021/12/25 15:48:32;;;;;;;48.70;44.38;;;;;;;-2.66;71.84;101424.47;6093943;23;20070;-84
2021/12/25 15:50:57;;;;;;;48.45;44.70;;;;;;;-2.80;72.72;101421.44;6092684;23;20028;-85
2021/12/25 15:53:23;;;;;;;49.10;44.97;;;;;;;-2.90;72.95;101414.38;6117498;23;20429;-84
2021/12/25 15:55:48;;;;;;;48.27;44.50;;;;;;;-2.91;73.37;101416.03;6099334;23;20006;-84
2021/12/25 15:58:18;;;;;;;50.30;45.90;;;;;;;-2.95;74.09;101402.47;6093473;23;20333;-83
2021/12/25 16:00:45;;;;;;;52.80;47.70;;;;;;;-3.08;74.14;101410.38;6097807;23;20021;-83
2021/12/25 16:03:11;;;;;;;50.72;46.13;;;;;;;-2.93;74.88;101420.13;6118492;23;20041;-83
2021/12/25 16:05:36;;;;;;;51.22;46.85;;;;;;;-2.93;75.11;101425.16;6092162;23;20006;-84
2021/12/25 16:08:03;;;;;;;49.63;45.43;;;;;;;-3.18;74.85;101385.63;6091402;23;20062;-83
2021/12/25 16:10:29;;;;;;;49.72;45.47;;;;;;;-3.14;75.07;101388.31;6091670;23;20012;-84
2021/12/25 16:12:54;;;;;;;50.30;45.70;;;;;;;-3.04;74.87;101411.31;6090917;23;20025;-83
2021/12/25 16:15:20;;;;;;;50.30;45.90;;;;;;;-3.08;75.13;101405.31;6090934;23;20006;-84
2021/12/25 16:17:46;;;;;;;50.05;45.60;;;;;;;-3.08;75.00;101396.94;6090557;23;19998;-84
2021/12/25 16:20:13;;;;;;;49.63;45.33;;;;;;;-3.16;75.06;101394.97;6093254;23;19994;-84
2021/12/25 16:22:39;;;;;;;50.97;46.30;;;;;;;-3.07;75.30;101406.16;6102735;23;20244;-84